Portada
METAR-TAF:

METAR-TAF

Aeropuertos :

Aeropuerto de Vitoria

Vitoria, España

latitud: 42-53N, longitud: 002-43W, altitud: 513 m

Observación

El informe se hizo hace 14 minutos, a las 01:00 UTC
Viento 12 kt del sur-sureste con ráfagas de 22 kt, variando entre este y sur
Temperatura 10°C
Humedad 71%
Presión 1023 hPa
Visibilidad 10 km o más
Cielo nuboso a una altura de 5800 ft

METAR: LEVT 020100Z 15012G22KT 100V190 9999 BKN058 10/05 Q1023

Hora: 02:14 (01:14 UTC)

Pronóstico

El informe se hizo hace 2 horas y 14 minutos, a las 23:00 UTC
Pronóstico válido del 02 a las 00 UTC al 02 a las 24 UTC
Viento 9 kt del sureste
Visibilidad 10 km o más
Nubes dispersas a una altura de 2000 ft
Temporalmente
del 02 a las 00 UTC al 02 a las 17 UTC
Viento 15 kt del sureste con ráfagas de 25 kt

TAF: LEVT 012300Z 0200/0224 13009KT 9999 SCT020 TX15/0215Z TN06/0207Z TEMPO 0200/0217 13015G25KT

Observaciones y pronósticos meteorológicos de más de 4000 aeropuertos (mensajes METAR y TAF).

Los puntos amarillos y rojos representan las estaciones disponibles.

Ponga el ratón en el punto deseado para ver el nombre de la estación.

Haga clic para ver las observaciones y los pronósticos meteorológicos.

Para cambiar el mapa : haga clic en los botones verdes con una cruz de color negro para hacer un zoom, en el botón verde con un guión para alejar o en las flechas verdes para mapas adyacentes.


METAR-TAF: